sensor_id;sensor_type;location;lat;lon;timestamp;P1;durP1;ratioP1;P2;durP2;ratioP2
19739;SDS011;10027;51.066;13.768;2023-06-22T00:02:22;7.43;;;5.80;;
19739;SDS011;10027;51.066;13.768;2023-06-22T00:04:49;6.77;;;6.07;;
19739;SDS011;10027;51.066;13.768;2023-06-22T00:07:16;8.17;;;6.60;;
19739;SDS011;10027;51.066;13.768;2023-06-22T00:09:43;7.27;;;5.87;;
19739;SDS011;10027;51.066;13.768;2023-06-22T00:12:11;8.83;;;6.53;;
19739;SDS011;10027;51.066;13.768;2023-06-22T00:14:38;7.90;;;6.20;;
19739;SDS011;10027;51.066;13.768;2023-06-22T00:17:05;6.37;;;5.77;;
19739;SDS011;10027;51.066;13.768;2023-06-22T00:19:32;7.40;;;5.93;;
19739;SDS011;10027;51.066;13.768;2023-06-22T00:22:01;7.10;;;6.17;;
19739;SDS011;10027;51.066;13.768;2023-06-22T00:24:29;7.00;;;6.27;;
19739;SDS011;10027;51.066;13.768;2023-06-22T00:26:57;8.73;;;6.20;;
19739;SDS011;10027;51.066;13.768;2023-06-22T00:29:24;6.47;;;5.80;;
19739;SDS011;10027;51.066;13.768;2023-06-22T00:31:51;7.17;;;6.20;;
19739;SDS011;10027;51.066;13.768;2023-06-22T00:34:19;6.83;;;6.10;;
19739;SDS011;10027;51.066;13.768;2023-06-22T00:36:46;7.23;;;6.50;;
19739;SDS011;10027;51.066;13.768;2023-06-22T00:39:13;7.73;;;6.33;;
19739;SDS011;10027;51.066;13.768;2023-06-22T00:41:40;7.27;;;5.80;;
19739;SDS011;10027;51.066;13.768;2023-06-22T00:44:07;7.70;;;6.37;;
19739;SDS011;10027;51.066;13.768;2023-06-22T00:46:35;7.13;;;5.90;;
19739;SDS011;10027;51.066;13.768;2023-06-22T00:49:02;8.20;;;6.10;;
19739;SDS011;10027;51.066;13.768;2023-06-22T00:51:31;7.87;;;6.17;;
19739;SDS011;10027;51.066;13.768;2023-06-22T00:53:58;7.17;;;6.40;;
19739;SDS011;10027;51.066;13.768;2023-06-22T00:56:26;7.67;;;6.60;;
19739;SDS011;10027;51.066;13.768;2023-06-22T00:58:56;7.53;;;6.27;;
19739;SDS011;10027;51.066;13.768;2023-06-22T01:01:25;6.70;;;6.00;;
19739;SDS011;10027;51.066;13.768;2023-06-22T01:03:52;6.67;;;5.90;;
19739;SDS011;10027;51.066;13.768;2023-06-22T01:06:28;8.47;;;6.30;;
19739;SDS011;10027;51.066;13.768;2023-06-22T01:09:10;7.33;;;6.23;;
19739;SDS011;10027;51.066;13.768;2023-06-22T01:11:41;7.90;;;6.47;;
19739;SDS011;10027;51.066;13.768;2023-06-22T01:14:14;7.63;;;6.43;;
19739;SDS011;10027;51.066;13.768;2023-06-22T01:16:43;6.80;;;5.50;;
19739;SDS011;10027;51.066;13.768;2023-06-22T01:21:56;6.80;;;5.97;;
19739;SDS011;10027;51.066;13.768;2023-06-22T01:24:32;7.90;;;6.30;;
19739;SDS011;10027;51.066;13.768;2023-06-22T01:29:35;8.10;;;6.47;;
19739;SDS011;10027;51.066;13.768;2023-06-22T01:32:04;7.50;;;5.97;;
19739;SDS011;10027;51.066;13.768;2023-06-22T01:34:34;7.97;;;6.50;;
19739;SDS011;10027;51.066;13.768;2023-06-22T01:37:02;8.83;;;6.37;;
19739;SDS011;10027;51.066;13.768;2023-06-22T01:39:30;7.70;;;6.90;;
19739;SDS011;10027;51.066;13.768;2023-06-22T01:41:57;7.47;;;6.57;;
19739;SDS011;10027;51.066;13.768;2023-06-22T01:44:25;7.67;;;6.80;;
19739;SDS011;10027;51.066;13.768;2023-06-22T01:46:53;8.23;;;6.70;;
19739;SDS011;10027;51.066;13.768;2023-06-22T01:49:20;7.57;;;6.67;;
19739;SDS011;10027;51.066;13.768;2023-06-22T01:51:47;8.03;;;6.87;;
19739;SDS011;10027;51.066;13.768;2023-06-22T01:54:15;8.00;;;6.13;;
19739;SDS011;10027;51.066;13.768;2023-06-22T01:56:42;7.10;;;6.33;;
19739;SDS011;10027;51.066;13.768;2023-06-22T01:59:11;8.07;;;7.23;;
19739;SDS011;10027;51.066;13.768;2023-06-22T02:01:43;7.33;;;6.40;;
19739;SDS011;10027;51.066;13.768;2023-06-22T02:04:18;9.80;;;6.60;;
19739;SDS011;10027;51.066;13.768;2023-06-22T02:06:47;7.80;;;6.80;;
19739;SDS011;10027;51.066;13.768;2023-06-22T02:09:17;7.83;;;6.80;;
19739;SDS011;10027;51.066;13.768;2023-06-22T02:11:46;9.00;;;6.93;;
19739;SDS011;10027;51.066;13.768;2023-06-22T02:14:14;8.03;;;6.90;;
19739;SDS011;10027;51.066;13.768;2023-06-22T02:16:45;7.73;;;6.40;;
19739;SDS011;10027;51.066;13.768;2023-06-22T02:19:13;8.40;;;7.03;;
19739;SDS011;10027;51.066;13.768;2023-06-22T02:21:42;8.57;;;7.00;;
19739;SDS011;10027;51.066;13.768;2023-06-22T02:24:09;7.43;;;6.70;;
19739;SDS011;10027;51.066;13.768;2023-06-22T02:26:36;7.77;;;6.90;;
19739;SDS011;10027;51.066;13.768;2023-06-22T02:29:04;8.43;;;7.10;;
19739;SDS011;10027;51.066;13.768;2023-06-22T02:31:31;8.53;;;7.03;;
19739;SDS011;10027;51.066;13.768;2023-06-22T02:33:59;7.90;;;6.67;;
19739;SDS011;10027;51.066;13.768;2023-06-22T02:36:26;7.77;;;6.50;;
19739;SDS011;10027;51.066;13.768;2023-06-22T02:38:56;9.23;;;7.00;;
19739;SDS011;10027;51.066;13.768;2023-06-22T02:41:27;8.47;;;6.87;;
19739;SDS011;10027;51.066;13.768;2023-06-22T02:43:54;8.60;;;7.10;;
19739;SDS011;10027;51.066;13.768;2023-06-22T02:46:21;7.93;;;6.73;;
19739;SDS011;10027;51.066;13.768;2023-06-22T02:48:49;8.37;;;6.53;;
19739;SDS011;10027;51.066;13.768;2023-06-22T02:51:16;7.80;;;7.00;;
19739;SDS011;10027;51.066;13.768;2023-06-22T02:53:43;8.40;;;6.80;;
19739;SDS011;10027;51.066;13.768;2023-06-22T02:56:11;8.70;;;7.33;;
19739;SDS011;10027;51.066;13.768;2023-06-22T02:58:39;9.10;;;7.13;;
19739;SDS011;10027;51.066;13.768;2023-06-22T03:01:06;7.60;;;6.60;;
19739;SDS011;10027;51.066;13.768;2023-06-22T03:03:33;7.50;;;6.67;;
19739;SDS011;10027;51.066;13.768;2023-06-22T03:06:01;9.30;;;7.57;;
19739;SDS011;10027;51.066;13.768;2023-06-22T03:08:28;7.57;;;6.67;;
19739;SDS011;10027;51.066;13.768;2023-06-22T03:10:56;10.20;;;7.03;;
19739;SDS011;10027;51.066;13.768;2023-06-22T03:13:23;7.77;;;6.60;;
19739;SDS011;10027;51.066;13.768;2023-06-22T03:15:50;9.13;;;7.10;;
19739;SDS011;10027;51.066;13.768;2023-06-22T03:18:19;9.23;;;7.10;;
19739;SDS011;10027;51.066;13.768;2023-06-22T03:20:48;8.30;;;6.90;;
19739;SDS011;10027;51.066;13.768;2023-06-22T03:23:15;8.87;;;6.70;;
19739;SDS011;10027;51.066;13.768;2023-06-22T03:25:42;9.07;;;7.03;;
19739;SDS011;10027;51.066;13.768;2023-06-22T03:28:10;9.40;;;7.57;;
19739;SDS011;10027;51.066;13.768;2023-06-22T03:30:38;8.10;;;6.93;;
19739;SDS011;10027;51.066;13.768;2023-06-22T03:33:05;10.37;;;7.00;;
19739;SDS011;10027;51.066;13.768;2023-06-22T03:35:32;8.03;;;7.10;;
19739;SDS011;10027;51.066;13.768;2023-06-22T03:37:59;9.30;;;6.97;;
19739;SDS011;10027;51.066;13.768;2023-06-22T03:40:27;8.87;;;7.00;;
19739;SDS011;10027;51.066;13.768;2023-06-22T03:42:55;8.03;;;7.10;;
19739;SDS011;10027;51.066;13.768;2023-06-22T03:45:22;8.33;;;7.03;;
19739;SDS011;10027;51.066;13.768;2023-06-22T03:47:49;8.60;;;7.50;;
19739;SDS011;10027;51.066;13.768;2023-06-22T03:50:16;9.87;;;6.83;;
19739;SDS011;10027;51.066;13.768;2023-06-22T03:52:46;8.47;;;7.33;;
19739;SDS011;10027;51.066;13.768;2023-06-22T03:55:13;8.57;;;7.50;;
19739;SDS011;10027;51.066;13.768;2023-06-22T03:57:40;8.73;;;6.77;;
19739;SDS011;10027;51.066;13.768;2023-06-22T04:00:08;8.50;;;6.80;;
19739;SDS011;10027;51.066;13.768;2023-06-22T04:02:36;9.57;;;6.73;;
19739;SDS011;10027;51.066;13.768;2023-06-22T04:05:04;8.90;;;7.47;;
19739;SDS011;10027;51.066;13.768;2023-06-22T04:07:31;7.63;;;6.83;;
19739;SDS011;10027;51.066;13.768;2023-06-22T04:09:58;10.40;;;7.27;;
19739;SDS011;10027;51.066;13.768;2023-06-22T04:12:25;9.60;;;7.33;;
19739;SDS011;10027;51.066;13.768;2023-06-22T04:14:52;9.17;;;7.23;;
19739;SDS011;10027;51.066;13.768;2023-06-22T04:17:20;7.73;;;6.93;;
19739;SDS011;10027;51.066;13.768;2023-06-22T04:19:47;12.17;;;7.20;;
19739;SDS011;10027;51.066;13.768;2023-06-22T04:22:14;9.10;;;7.67;;
19739;SDS011;10027;51.066;13.768;2023-06-22T04:24:41;8.90;;;7.47;;
19739;SDS011;10027;51.066;13.768;2023-06-22T04:27:08;8.50;;;7.60;;
19739;SDS011;10027;51.066;13.768;2023-06-22T04:29:35;8.23;;;7.00;;
19739;SDS011;10027;51.066;13.768;2023-06-22T04:32:04;8.60;;;7.33;;
19739;SDS011;10027;51.066;13.768;2023-06-22T04:34:32;9.20;;;7.60;;
19739;SDS011;10027;51.066;13.768;2023-06-22T04:36:59;9.30;;;7.00;;
19739;SDS011;10027;51.066;13.768;2023-06-22T04:39:27;8.83;;;7.20;;
19739;SDS011;10027;51.066;13.768;2023-06-22T04:41:54;9.03;;;7.20;;
19739;SDS011;10027;51.066;13.768;2023-06-22T04:44:26;10.30;;;7.10;;
19739;SDS011;10027;51.066;13.768;2023-06-22T04:46:54;9.17;;;7.23;;
19739;SDS011;10027;51.066;13.768;2023-06-22T04:49:26;8.87;;;7.20;;
19739;SDS011;10027;51.066;13.768;2023-06-22T04:52:03;8.50;;;6.90;;
19739;SDS011;10027;51.066;13.768;2023-06-22T04:54:30;7.80;;;7.00;;
19739;SDS011;10027;51.066;13.768;2023-06-22T04:56:59;9.70;;;7.63;;
19739;SDS011;10027;51.066;13.768;2023-06-22T04:59:27;9.73;;;7.20;;
19739;SDS011;10027;51.066;13.768;2023-06-22T05:01:56;8.47;;;7.43;;
19739;SDS011;10027;51.066;13.768;2023-06-22T05:04:23;9.00;;;7.27;;
19739;SDS011;10027;51.066;13.768;2023-06-22T05:06:51;9.90;;;7.57;;
19739;SDS011;10027;51.066;13.768;2023-06-22T05:09:18;9.17;;;7.13;;
19739;SDS011;10027;51.066;13.768;2023-06-22T05:11:46;8.10;;;7.30;;
19739;SDS011;10027;51.066;13.768;2023-06-22T05:14:13;7.70;;;7.00;;
19739;SDS011;10027;51.066;13.768;2023-06-22T05:16:41;8.27;;;7.07;;
19739;SDS011;10027;51.066;13.768;2023-06-22T05:19:09;9.55;;;7.22;;
19739;SDS011;10027;51.066;13.768;2023-06-22T05:21:36;7.50;;;6.80;;
19739;SDS011;10027;51.066;13.768;2023-06-22T05:24:03;7.70;;;7.00;;
19739;SDS011;10027;51.066;13.768;2023-06-22T05:26:31;7.63;;;6.93;;
19739;SDS011;10027;51.066;13.768;2023-06-22T05:28:59;7.75;;;6.85;;
19739;SDS011;10027;51.066;13.768;2023-06-22T05:31:27;8.73;;;7.45;;
19739;SDS011;10027;51.066;13.768;2023-06-22T05:33:54;8.10;;;7.30;;
19739;SDS011;10027;51.066;13.768;2023-06-22T05:36:22;8.23;;;7.28;;
19739;SDS011;10027;51.066;13.768;2023-06-22T05:38:52;7.97;;;7.10;;
19739;SDS011;10027;51.066;13.768;2023-06-22T05:41:20;8.20;;;7.40;;
19739;SDS011;10027;51.066;13.768;2023-06-22T05:43:47;7.53;;;6.80;;
19739;SDS011;10027;51.066;13.768;2023-06-22T05:46:14;7.80;;;7.05;;
19739;SDS011;10027;51.066;13.768;2023-06-22T05:48:41;8.13;;;7.32;;
19739;SDS011;10027;51.066;13.768;2023-06-22T05:51:08;9.77;;;6.93;;
19739;SDS011;10027;51.066;13.768;2023-06-22T05:53:35;8.38;;;7.68;;
19739;SDS011;10027;51.066;13.768;2023-06-22T05:56:02;8.55;;;7.50;;
19739;SDS011;10027;51.066;13.768;2023-06-22T05:58:30;8.82;;;7.57;;
19739;SDS011;10027;51.066;13.768;2023-06-22T06:00:57;8.63;;;7.72;;
19739;SDS011;10027;51.066;13.768;2023-06-22T06:03:26;8.10;;;7.32;;
19739;SDS011;10027;51.066;13.768;2023-06-22T06:05:55;8.15;;;7.35;;
19739;SDS011;10027;51.066;13.768;2023-06-22T06:08:22;7.80;;;7.10;;
19739;SDS011;10027;51.066;13.768;2023-06-22T06:10:49;8.32;;;7.53;;
19739;SDS011;10027;51.066;13.768;2023-06-22T06:13:19;7.10;;;6.40;;
19739;SDS011;10027;51.066;13.768;2023-06-22T06:15:46;7.53;;;6.78;;
19739;SDS011;10027;51.066;13.768;2023-06-22T06:18:13;7.68;;;6.97;;
19739;SDS011;10027;51.066;13.768;2023-06-22T06:20:41;7.20;;;6.60;;
19739;SDS011;10027;51.066;13.768;2023-06-22T06:23:08;7.57;;;6.72;;
19739;SDS011;10027;51.066;13.768;2023-06-22T06:25:35;7.85;;;7.15;;
19739;SDS011;10027;51.066;13.768;2023-06-22T06:28:03;8.07;;;7.15;;
19739;SDS011;10027;51.066;13.768;2023-06-22T06:30:30;8.23;;;7.43;;
19739;SDS011;10027;51.066;13.768;2023-06-22T06:32:58;8.13;;;7.40;;
19739;SDS011;10027;51.066;13.768;2023-06-22T06:35:26;8.02;;;7.22;;
19739;SDS011;10027;51.066;13.768;2023-06-22T06:37:54;9.38;;;7.75;;
19739;SDS011;10027;51.066;13.768;2023-06-22T06:40:21;9.30;;;7.55;;
19739;SDS011;10027;51.066;13.768;2023-06-22T06:42:48;8.00;;;7.22;;
19739;SDS011;10027;51.066;13.768;2023-06-22T06:45:19;10.13;;;7.57;;
19739;SDS011;10027;51.066;13.768;2023-06-22T06:47:49;9.35;;;6.80;;
19739;SDS011;10027;51.066;13.768;2023-06-22T06:50:17;7.35;;;6.53;;
19739;SDS011;10027;51.066;13.768;2023-06-22T06:52:44;9.10;;;6.97;;
19739;SDS011;10027;51.066;13.768;2023-06-22T06:55:11;8.67;;;7.13;;
19739;SDS011;10027;51.066;13.768;2023-06-22T06:57:40;8.80;;;7.27;;
19739;SDS011;10027;51.066;13.768;2023-06-22T07:00:08;9.25;;;7.10;;
19739;SDS011;10027;51.066;13.768;2023-06-22T07:02:38;8.13;;;7.25;;
19739;SDS011;10027;51.066;13.768;2023-06-22T07:05:06;8.35;;;7.55;;
19739;SDS011;10027;51.066;13.768;2023-06-22T07:07:34;8.15;;;7.35;;
19739;SDS011;10027;51.066;13.768;2023-06-22T07:10:04;8.90;;;7.47;;
19739;SDS011;10027;51.066;13.768;2023-06-22T07:12:32;7.82;;;7.03;;
19739;SDS011;10027;51.066;13.768;2023-06-22T07:15:05;8.15;;;7.45;;
19739;SDS011;10027;51.066;13.768;2023-06-22T07:17:35;7.68;;;7.07;;
19739;SDS011;10027;51.066;13.768;2023-06-22T07:20:02;8.23;;;7.43;;
19739;SDS011;10027;51.066;13.768;2023-06-22T07:22:36;8.80;;;7.90;;
19739;SDS011;10027;51.066;13.768;2023-06-22T07:25:03;7.40;;;6.80;;
19739;SDS011;10027;51.066;13.768;2023-06-22T07:27:36;8.85;;;8.00;;
19739;SDS011;10027;51.066;13.768;2023-06-22T07:30:04;7.93;;;7.32;;
19739;SDS011;10027;51.066;13.768;2023-06-22T07:32:31;8.18;;;7.57;;
19739;SDS011;10027;51.066;13.768;2023-06-22T07:34:59;7.93;;;7.25;;
19739;SDS011;10027;51.066;13.768;2023-06-22T07:37:26;8.32;;;7.60;;
19739;SDS011;10027;51.066;13.768;2023-06-22T07:39:54;8.40;;;7.70;;
19739;SDS011;10027;51.066;13.768;2023-06-22T07:42:25;8.00;;;7.30;;
19739;SDS011;10027;51.066;13.768;2023-06-22T07:44:53;8.23;;;7.53;;
19739;SDS011;10027;51.066;13.768;2023-06-22T07:47:20;8.70;;;7.93;;
19739;SDS011;10027;51.066;13.768;2023-06-22T07:49:51;8.77;;;8.00;;
19739;SDS011;10027;51.066;13.768;2023-06-22T07:52:21;8.75;;;7.95;;
19739;SDS011;10027;51.066;13.768;2023-06-22T07:54:48;8.68;;;7.88;;
19739;SDS011;10027;51.066;13.768;2023-06-22T07:57:15;8.00;;;7.35;;
19739;SDS011;10027;51.066;13.768;2023-06-22T07:59:42;8.45;;;7.68;;
19739;SDS011;10027;51.066;13.768;2023-06-22T08:02:09;8.73;;;7.80;;
19739;SDS011;10027;51.066;13.768;2023-06-22T08:04:37;9.07;;;8.27;;
19739;SDS011;10027;51.066;13.768;2023-06-22T08:07:04;8.77;;;7.97;;
19739;SDS011;10027;51.066;13.768;2023-06-22T08:09:32;8.95;;;8.15;;
19739;SDS011;10027;51.066;13.768;2023-06-22T08:12:00;7.47;;;6.88;;
19739;SDS011;10027;51.066;13.768;2023-06-22T08:14:27;7.53;;;6.88;;
19739;SDS011;10027;51.066;13.768;2023-06-22T08:16:54;7.13;;;6.53;;
19739;SDS011;10027;51.066;13.768;2023-06-22T08:19:21;7.95;;;6.80;;
19739;SDS011;10027;51.066;13.768;2023-06-22T08:21:49;6.72;;;5.97;;
19739;SDS011;10027;51.066;13.768;2023-06-22T08:24:16;6.90;;;6.30;;
19739;SDS011;10027;51.066;13.768;2023-06-22T08:26:43;7.13;;;6.53;;
19739;SDS011;10027;51.066;13.768;2023-06-22T08:29:11;7.03;;;6.32;;
19739;SDS011;10027;51.066;13.768;2023-06-22T08:31:38;7.22;;;6.55;;
19739;SDS011;10027;51.066;13.768;2023-06-22T08:34:05;7.20;;;6.60;;
19739;SDS011;10027;51.066;13.768;2023-06-22T08:36:32;8.88;;;6.28;;
19739;SDS011;10027;51.066;13.768;2023-06-22T08:39:07;6.38;;;5.88;;
19739;SDS011;10027;51.066;13.768;2023-06-22T08:41:34;6.18;;;5.68;;
19739;SDS011;10027;51.066;13.768;2023-06-22T08:44:02;6.78;;;6.18;;
19739;SDS011;10027;51.066;13.768;2023-06-22T08:46:30;7.05;;;6.45;;
19739;SDS011;10027;51.066;13.768;2023-06-22T08:48:59;6.38;;;5.85;;
19739;SDS011;10027;51.066;13.768;2023-06-22T08:51:27;6.40;;;5.80;;
19739;SDS011;10027;51.066;13.768;2023-06-22T08:53:55;6.68;;;6.07;;
19739;SDS011;10027;51.066;13.768;2023-06-22T08:56:23;6.35;;;5.85;;
19739;SDS011;10027;51.066;13.768;2023-06-22T08:58:50;6.93;;;6.07;;
19739;SDS011;10027;51.066;13.768;2023-06-22T09:01:17;7.05;;;6.30;;
19739;SDS011;10027;51.066;13.768;2023-06-22T09:03:44;6.72;;;6.13;;
19739;SDS011;10027;51.066;13.768;2023-06-22T09:06:21;6.13;;;5.63;;
19739;SDS011;10027;51.066;13.768;2023-06-22T09:08:48;6.10;;;5.53;;
19739;SDS011;10027;51.066;13.768;2023-06-22T09:11:15;6.47;;;5.88;;
19739;SDS011;10027;51.066;13.768;2023-06-22T09:13:43;6.13;;;5.63;;
19739;SDS011;10027;51.066;13.768;2023-06-22T09:16:10;5.78;;;5.30;;
19739;SDS011;10027;51.066;13.768;2023-06-22T09:18:38;6.18;;;5.32;;
19739;SDS011;10027;51.066;13.768;2023-06-22T09:21:05;6.07;;;5.47;;
19739;SDS011;10027;51.066;13.768;2023-06-22T09:23:32;5.63;;;5.13;;
19739;SDS011;10027;51.066;13.768;2023-06-22T09:26:00;5.80;;;5.30;;
19739;SDS011;10027;51.066;13.768;2023-06-22T09:28:27;5.85;;;5.30;;
19739;SDS011;10027;51.066;13.768;2023-06-22T09:30:54;6.28;;;5.68;;
19739;SDS011;10027;51.066;13.768;2023-06-22T09:33:25;6.10;;;5.60;;
19739;SDS011;10027;51.066;13.768;2023-06-22T09:35:52;6.10;;;5.60;;
19739;SDS011;10027;51.066;13.768;2023-06-22T09:38:19;6.30;;;5.80;;
19739;SDS011;10027;51.066;13.768;2023-06-22T09:40:46;5.95;;;5.45;;
19739;SDS011;10027;51.066;13.768;2023-06-22T09:43:13;6.22;;;5.72;;
19739;SDS011;10027;51.066;13.768;2023-06-22T09:45:41;6.25;;;5.72;;
19739;SDS011;10027;51.066;13.768;2023-06-22T09:48:08;9.10;;;6.45;;
19739;SDS011;10027;51.066;13.768;2023-06-22T09:50:36;6.82;;;6.20;;
19739;SDS011;10027;51.066;13.768;2023-06-22T09:53:03;6.68;;;6.07;;
19739;SDS011;10027;51.066;13.768;2023-06-22T09:55:31;6.82;;;6.22;;
19739;SDS011;10027;51.066;13.768;2023-06-22T09:57:58;6.57;;;6.00;;
19739;SDS011;10027;51.066;13.768;2023-06-22T10:00:25;6.60;;;6.00;;
19739;SDS011;10027;51.066;13.768;2023-06-22T10:02:53;6.70;;;6.10;;
19739;SDS011;10027;51.066;13.768;2023-06-22T10:05:26;6.63;;;6.03;;
19739;SDS011;10027;51.066;13.768;2023-06-22T10:07:54;6.65;;;6.05;;
19739;SDS011;10027;51.066;13.768;2023-06-22T10:10:21;6.60;;;6.00;;
19739;SDS011;10027;51.066;13.768;2023-06-22T10:12:55;6.68;;;6.07;;
19739;SDS011;10027;51.066;13.768;2023-06-22T10:15:23;7.93;;;7.22;;
19739;SDS011;10027;51.066;13.768;2023-06-22T10:17:53;7.38;;;6.38;;
19739;SDS011;10027;51.066;13.768;2023-06-22T10:20:21;7.88;;;7.00;;
19739;SDS011;10027;51.066;13.768;2023-06-22T10:22:48;8.10;;;7.40;;
19739;SDS011;10027;51.066;13.768;2023-06-22T10:25:15;7.90;;;7.20;;
19739;SDS011;10027;51.066;13.768;2023-06-22T10:27:42;8.38;;;7.03;;
19739;SDS011;10027;51.066;13.768;2023-06-22T10:30:11;8.07;;;7.30;;
19739;SDS011;10027;51.066;13.768;2023-06-22T10:32:42;7.82;;;7.03;;
19739;SDS011;10027;51.066;13.768;2023-06-22T10:35:10;7.13;;;6.53;;
19739;SDS011;10027;51.066;13.768;2023-06-22T10:37:39;8.88;;;6.70;;
19739;SDS011;10027;51.066;13.768;2023-06-22T10:40:09;8.23;;;6.75;;
19739;SDS011;10027;51.066;13.768;2023-06-22T10:42:36;7.15;;;6.45;;
19739;SDS011;10027;51.066;13.768;2023-06-22T10:45:03;8.30;;;6.53;;
19739;SDS011;10027;51.066;13.768;2023-06-22T10:47:31;7.45;;;6.80;;
19739;SDS011;10027;51.066;13.768;2023-06-22T10:49:58;7.57;;;6.78;;
19739;SDS011;10027;51.066;13.768;2023-06-22T10:52:25;7.95;;;7.15;;
19739;SDS011;10027;51.066;13.768;2023-06-22T10:54:59;7.68;;;6.78;;
19739;SDS011;10027;51.066;13.768;2023-06-22T10:57:26;9.73;;;6.78;;
19739;SDS011;10027;51.066;13.768;2023-06-22T10:59:53;9.02;;;6.60;;
19739;SDS011;10027;51.066;13.768;2023-06-22T11:02:20;7.38;;;6.72;;
19739;SDS011;10027;51.066;13.768;2023-06-22T11:04:48;7.20;;;6.50;;
19739;SDS011;10027;51.066;13.768;2023-06-22T11:07:15;7.13;;;6.50;;
19739;SDS011;10027;51.066;13.768;2023-06-22T11:09:43;7.18;;;6.47;;
19739;SDS011;10027;51.066;13.768;2023-06-22T11:12:10;8.30;;;7.10;;
19739;SDS011;10027;51.066;13.768;2023-06-22T11:14:38;6.95;;;6.35;;
19739;SDS011;10027;51.066;13.768;2023-06-22T11:17:06;7.72;;;6.93;;
19739;SDS011;10027;51.066;13.768;2023-06-22T11:19:33;8.10;;;6.70;;
19739;SDS011;10027;51.066;13.768;2023-06-22T11:22:00;7.38;;;6.65;;
19739;SDS011;10027;51.066;13.768;2023-06-22T11:24:27;7.75;;;7.05;;
19739;SDS011;10027;51.066;13.768;2023-06-22T11:26:55;8.20;;;7.32;;
19739;SDS011;10027;51.066;13.768;2023-06-22T11:29:25;7.60;;;6.90;;
19739;SDS011;10027;51.066;13.768;2023-06-22T11:32:03;7.60;;;6.80;;
19739;SDS011;10027;51.066;13.768;2023-06-22T11:34:31;7.50;;;6.90;;
19739;SDS011;10027;51.066;13.768;2023-06-22T11:36:58;7.30;;;6.60;;
19739;SDS011;10027;51.066;13.768;2023-06-22T11:39:25;7.45;;;6.75;;
19739;SDS011;10027;51.066;13.768;2023-06-22T11:42:08;8.15;;;6.65;;
19739;SDS011;10027;51.066;13.768;2023-06-22T11:44:35;6.93;;;6.32;;
19739;SDS011;10027;51.066;13.768;2023-06-22T11:47:02;7.63;;;6.93;;
19739;SDS011;10027;51.066;13.768;2023-06-22T11:49:30;7.45;;;6.50;;
19739;SDS011;10027;51.066;13.768;2023-06-22T11:51:57;9.52;;;7.05;;
19739;SDS011;10027;51.066;13.768;2023-06-22T11:54:25;7.72;;;7.03;;
19739;SDS011;10027;51.066;13.768;2023-06-22T11:56:52;7.72;;;6.90;;
19739;SDS011;10027;51.066;13.768;2023-06-22T11:59:19;8.48;;;7.30;;
19739;SDS011;10027;51.066;13.768;2023-06-22T12:01:48;7.18;;;6.57;;
19739;SDS011;10027;51.066;13.768;2023-06-22T12:04:17;7.70;;;7.00;;
19739;SDS011;10027;51.066;13.768;2023-06-22T12:06:44;10.02;;;7.25;;
19739;SDS011;10027;51.066;13.768;2023-06-22T12:09:11;7.45;;;6.75;;
19739;SDS011;10027;51.066;13.768;2023-06-22T12:11:39;7.63;;;6.93;;
19739;SDS011;10027;51.066;13.768;2023-06-22T12:14:07;7.70;;;6.90;;
19739;SDS011;10027;51.066;13.768;2023-06-22T12:16:34;8.20;;;6.78;;
19739;SDS011;10027;51.066;13.768;2023-06-22T12:19:01;7.35;;;6.68;;
19739;SDS011;10027;51.066;13.768;2023-06-22T12:21:28;8.80;;;6.70;;
19739;SDS011;10027;51.066;13.768;2023-06-22T12:23:55;7.72;;;7.03;;
19739;SDS011;10027;51.066;13.768;2023-06-22T12:26:23;7.55;;;6.85;;
19739;SDS011;10027;51.066;13.768;2023-06-22T12:28:50;7.85;;;7.05;;
19739;SDS011;10027;51.066;13.768;2023-06-22T12:31:17;7.35;;;6.65;;
19739;SDS011;10027;51.066;13.768;2023-06-22T12:33:45;7.45;;;6.75;;
19739;SDS011;10027;51.066;13.768;2023-06-22T12:36:12;9.68;;;7.32;;
19739;SDS011;10027;51.066;13.768;2023-06-22T12:38:39;8.00;;;7.13;;
19739;SDS011;10027;51.066;13.768;2023-06-22T12:41:06;7.88;;;7.18;;
19739;SDS011;10027;51.066;13.768;2023-06-22T12:43:33;7.60;;;6.90;;
19739;SDS011;10027;51.066;13.768;2023-06-22T12:46:00;8.57;;;7.20;;
19739;SDS011;10027;51.066;13.768;2023-06-22T12:48:27;7.80;;;7.03;;
19739;SDS011;10027;51.066;13.768;2023-06-22T12:50:55;8.35;;;6.88;;
19739;SDS011;10027;51.066;13.768;2023-06-22T12:53:22;7.55;;;6.75;;
19739;SDS011;10027;51.066;13.768;2023-06-22T12:55:50;7.72;;;6.95;;
19739;SDS011;10027;51.066;13.768;2023-06-22T12:58:17;7.10;;;6.47;;
19739;SDS011;10027;51.066;13.768;2023-06-22T13:00:44;7.68;;;6.97;;
19739;SDS011;10027;51.066;13.768;2023-06-22T13:03:11;8.38;;;7.57;;
19739;SDS011;10027;51.066;13.768;2023-06-22T13:05:38;8.23;;;7.47;;
19739;SDS011;10027;51.066;13.768;2023-06-22T13:08:06;7.63;;;6.93;;
19739;SDS011;10027;51.066;13.768;2023-06-22T13:10:38;10.93;;;7.50;;
19739;SDS011;10027;51.066;13.768;2023-06-22T13:13:05;7.20;;;6.50;;
19739;SDS011;10027;51.066;13.768;2023-06-22T13:15:32;7.80;;;7.10;;
19739;SDS011;10027;51.066;13.768;2023-06-22T13:18:00;7.70;;;6.75;;
19739;SDS011;10027;51.066;13.768;2023-06-22T13:20:28;7.07;;;6.47;;
19739;SDS011;10027;51.066;13.768;2023-06-22T13:22:56;7.65;;;6.90;;
19739;SDS011;10027;51.066;13.768;2023-06-22T13:25:23;8.23;;;7.43;;
19739;SDS011;10027;51.066;13.768;2023-06-22T13:27:53;7.57;;;6.82;;
19739;SDS011;10027;51.066;13.768;2023-06-22T13:30:20;7.38;;;6.68;;
19739;SDS011;10027;51.066;13.768;2023-06-22T13:32:47;8.45;;;7.15;;
19739;SDS011;10027;51.066;13.768;2023-06-22T13:35:15;7.78;;;7.05;;
19739;SDS011;10027;51.066;13.768;2023-06-22T13:37:42;8.13;;;7.13;;
19739;SDS011;10027;51.066;13.768;2023-06-22T13:40:09;7.80;;;7.10;;
19739;SDS011;10027;51.066;13.768;2023-06-22T13:42:36;9.10;;;7.20;;
19739;SDS011;10027;51.066;13.768;2023-06-22T13:45:04;7.65;;;6.88;;
19739;SDS011;10027;51.066;13.768;2023-06-22T13:47:31;8.35;;;7.05;;
19739;SDS011;10027;51.066;13.768;2023-06-22T13:49:59;7.68;;;6.90;;
19739;SDS011;10027;51.066;13.768;2023-06-22T13:52:26;8.05;;;7.30;;
19739;SDS011;10027;51.066;13.768;2023-06-22T13:54:53;7.88;;;7.05;;
19739;SDS011;10027;51.066;13.768;2023-06-22T13:57:20;7.40;;;6.70;;
19739;SDS011;10027;51.066;13.768;2023-06-22T13:59:47;7.22;;;6.63;;
19739;SDS011;10027;51.066;13.768;2023-06-22T14:02:14;8.45;;;7.03;;
19739;SDS011;10027;51.066;13.768;2023-06-22T14:04:42;7.80;;;7.10;;
19739;SDS011;10027;51.066;13.768;2023-06-22T14:07:09;7.82;;;7.03;;
19739;SDS011;10027;51.066;13.768;2023-06-22T14:09:36;7.82;;;7.13;;
19739;SDS011;10027;51.066;13.768;2023-06-22T14:12:06;8.38;;;7.47;;
19739;SDS011;10027;51.066;13.768;2023-06-22T14:14:34;9.07;;;6.97;;
19739;SDS011;10027;51.066;13.768;2023-06-22T14:17:01;8.52;;;7.72;;
19739;SDS011;10027;51.066;13.768;2023-06-22T14:19:28;7.82;;;7.03;;
19739;SDS011;10027;51.066;13.768;2023-06-22T14:21:55;7.60;;;6.90;;
19739;SDS011;10027;51.066;13.768;2023-06-22T14:24:23;7.85;;;7.13;;
19739;SDS011;10027;51.066;13.768;2023-06-22T14:26:54;8.43;;;7.57;;
19739;SDS011;10027;51.066;13.768;2023-06-22T14:29:22;7.85;;;7.05;;
19739;SDS011;10027;51.066;13.768;2023-06-22T14:31:49;7.57;;;6.85;;
19739;SDS011;10027;51.066;13.768;2023-06-22T14:34:16;7.80;;;7.00;;
19739;SDS011;10027;51.066;13.768;2023-06-22T14:36:43;8.15;;;7.25;;
19739;SDS011;10027;51.066;13.768;2023-06-22T14:39:10;8.10;;;7.30;;
19739;SDS011;10027;51.066;13.768;2023-06-22T14:41:37;7.97;;;7.18;;
19739;SDS011;10027;51.066;13.768;2023-06-22T14:44:05;7.70;;;7.00;;